Schneifelwetter: Wetterstation Hallschlag, 537 m . NN
Wetterdaten: Freitag, 11.11.2011
Datum Zeit Temp. A. Feuchte A. Luftdruck Regen Wind Richtung Richtung Sonnenschein Helligkeit T Regen Taupunkt Windchill
11.11.2011 00:09 3,1 C 96 % 1018 hPa 0,0 l/m 15,0 km/h (3 Bft) SO45 135 0 min 0 lux 0 min 2,5 C -3,2 C
11.11.2011 00:24 3,1 C 96 % 1018 hPa 0,0 l/m 12,0 km/h (2 Bft) SO67.5 140 0 min 0 lux 0 min 2,5 C -1,4 C
11.11.2011 00:39 3,1 C 96 % 1018 hPa 0,0 l/m 15,5 km/h (3 Bft) SO45 135 0 min 0 lux 0 min 2,5 C -3,5 C
11.11.2011 00:54 3,2 C 96 % 1018 hPa 0,0 l/m 8,9 km/h (2 Bft) SO22.5 135 0 min 0 lux 0 min 2,6 C 0,9 C
11.11.2011 01:09 3,2 C 96 % 1018 hPa 0,0 l/m 15,5 km/h (3 Bft) S-SO22.5 155 0 min 0 lux 0 min 2,6 C -3,4 C
11.11.2011 01:24 3,3 C 96 % 1019 hPa 0,0 l/m 11,6 km/h (2 Bft) SO22.5 135 0 min 0 lux 0 min 2,7 C -0,9 C
11.11.2011 01:39 3,3 C 96 % 1019 hPa 0,0 l/m 9,7 km/h (2 Bft) SO45 130 0 min 0 lux 0 min 2,7 C 0,4 C
11.11.2011 01:54 3,4 C 96 % 1019 hPa 0,0 l/m 10,4 km/h (2 Bft) SO22.5 145 0 min 0 lux 0 min 2,8 C 0,0 C
11.11.2011 02:09 3,4 C 96 % 1019 hPa 0,0 l/m 9,1 km/h (2 Bft) SO67.5 130 0 min 0 lux 0 min 2,8 C 1,0 C
11.11.2011 02:24 3,4 C 96 % 1018 hPa 0,0 l/m 14,6 km/h (3 Bft) S-SO22.5 160 0 min 0 lux 0 min 2,8 C -2,6 C
11.11.2011 02:39 3,4 C 96 % 1018 hPa 0,0 l/m 14,8 km/h (3 Bft) SO22.5 130 0 min 0 lux 0 min 2,8 C -2,8 C
11.11.2011 02:54 3,4 C 96 % 1018 hPa 0,0 l/m 12,5 km/h (3 Bft) O-SO45 115 0 min 0 lux 0 min 2,8 C -1,4 C
11.11.2011 03:09 3,4 C 96 % 1018 hPa 0,0 l/m 14,4 km/h (3 Bft) SO22.5 130 0 min 0 lux 0 min 2,8 C -2,5 C
11.11.2011 03:24 3,4 C 96 % 1018 hPa 0,0 l/m 13,2 km/h (3 Bft) SO45 140 0 min 0 lux 0 min 2,8 C -1,8 C
11.11.2011 03:39 3,4 C 96 % 1018 hPa 0,0 l/m 12,6 km/h (3 Bft) S-SO22.5 160 0 min 0 lux 0 min 2,8 C -1,5 C
11.11.2011 03:54 3,3 C 96 % 1019 hPa 0,0 l/m 18,5 km/h (3 Bft) SO22.5 145 0 min 0 lux 0 min 2,7 C -4,7 C
11.11.2011 04:09 3,3 C 96 % 1019 hPa 0,0 l/m 11,5 km/h (2 Bft) SO45 130 0 min 0 lux 0 min 2,7 C -0,9 C
11.11.2011 04:24 3,3 C 96 % 1019 hPa 0,0 l/m 12,5 km/h (3 Bft) S-SO22.5 160 0 min 0 lux 0 min 2,7 C -1,5 C
11.11.2011 04:39 3,3 C 96 % 1018 hPa 0,0 l/m 11,0 km/h (2 Bft) SO22.5 140 0 min 0 lux 0 min 2,7 C -0,5 C
11.11.2011 04:54 3,3 C 96 % 1018 hPa 0,0 l/m 16,6 km/h (3 Bft) SO45 145 0 min 0 lux 0 min 2,7 C -3,8 C
11.11.2011 05:09 3,3 C 96 % 1018 hPa 0,0 l/m 8,9 km/h (2 Bft) SO22.5 145 0 min 0 lux 0 min 2,7 C 1,1 C
11.11.2011 05:24 3,2 C 97 % 1018 hPa 0,0 l/m 12,2 km/h (2 Bft) SO22.5 140 0 min 0 lux 0 min 2,8 C -1,4 C
11.11.2011 05:39 3,2 C 97 % 1018 hPa 0,0 l/m 15,9 km/h (3 Bft) SO45 135 0 min 0 lux 0 min 2,8 C -3,6 C
11.11.2011 05:54 3,2 C 97 % 1018 hPa 0,0 l/m 17,0 km/h (3 Bft) SO22.5 140 0 min 0 lux 0 min 2,8 C -4,1 C
11.11.2011 06:09 3,2 C 97 % 1018 hPa 0,0 l/m 11,5 km/h (2 Bft) S-SO22.5 150 0 min 0 lux 0 min 2,8 C -1,0 C
11.11.2011 06:24 3,3 C 97 % 1018 hPa 0,0 l/m 15,8 km/h (3 Bft) SO22.5 130 0 min 0 lux 0 min 2,9 C -3,4 C
11.11.2011 06:39 3,3 C 97 % 1019 hPa 0,0 l/m 11,6 km/h (2 Bft) SO22.5 145 0 min 0 lux 0 min 2,9 C -0,9 C
11.11.2011 06:54 3,3 C 97 % 1019 hPa 0,0 l/m 15,2 km/h (3 Bft) SO45 130 0 min 0 lux 0 min 2,9 C -3,1 C
11.11.2011 07:09 3,4 C 97 % 1019 hPa 0,0 l/m 13,3 km/h (3 Bft) SO22.5 145 0 min 0 lux 0 min 3,0 C -1,9 C
11.11.2011 07:24 3,4 C 97 % 1019 hPa 0,0 l/m 14,8 km/h (3 Bft) S-SO22.5 160 0 min 104 lux 0 min 3,0 C -2,8 C
11.11.2011 07:39 3,4 C 97 % 1019 hPa 0,0 l/m 13,1 km/h (3 Bft) SO22.5 135 0 min 188 lux 0 min 3,0 C -1,8 C
11.11.2011 08:00 3,4 C 97 % 1019 hPa 0,0 l/m 10,1 km/h (2 Bft) SO22.5 140 0 min 516 lux 0 min 3,0 C 0,2 C
11.11.2011 08:15 3,5 C 97 % 1019 hPa 0,0 l/m 6,5 km/h (2 Bft) SO45 135 0 min 753 lux 0 min 3,1 C 3,4 C
11.11.2011 08:30 3,5 C 97 % 1019 hPa 0,0 l/m 9,6 km/h (2 Bft) S-SO22.5 160 0 min 1,07 klux 0 min 3,1 C 0,7 C
11.11.2011 08:45 3,5 C 97 % 1019 hPa 0,0 l/m 20,1 km/h (4 Bft) SO45 140 0 min 1,35 klux 0 min 3,1 C -5,2 C
11.11.2011 09:00 3,5 C 97 % 1020 hPa 0,0 l/m 16,6 km/h (3 Bft) O-SO22.5 120 0 min 1,95 klux 0 min 3,1 C -3,6 C
11.11.2011 09:15 3,5 C 97 % 1020 hPa 0,0 l/m 20,1 km/h (4 Bft) SO45 140 0 min 2,65 klux 0 min 3,1 C -5,2 C
11.11.2011 09:30 3,6 C 97 % 1020 hPa 0,0 l/m 16,8 km/h (3 Bft) SO45 135 0 min 3,38 klux 0 min 3,2 C -3,5 C
11.11.2011 09:45 3,7 C 97 % 1020 hPa 0,0 l/m 22,0 km/h (4 Bft) S-SO22.5 155 0 min 4,28 klux 0 min 3,3 C -5,6 C
11.11.2011 10:00 3,8 C 97 % 1020 hPa 0,0 l/m 21,1 km/h (4 Bft) SO22.5 135 0 min 4,22 klux 0 min 3,4 C -5,2 C
11.11.2011 10:15 3,9 C 97 % 1020 hPa 0,0 l/m 15,0 km/h (3 Bft) S-SO22.5 160 0 min 4,37 klux 0 min 3,5 C -2,3 C
11.11.2011 10:30 3,9 C 97 % 1020 hPa 0,0 l/m 14,5 km/h (3 Bft) SO22.5 145 0 min 5,08 klux 0 min 3,5 C -2,0 C
11.11.2011 10:45 4,0 C 97 % 1020 hPa 0,0 l/m 18,7 km/h (3 Bft) S-SO22.5 165 0 min 5,64 klux 0 min 3,6 C -3,9 C
11.11.2011 11:00 4,1 C 97 % 1020 hPa 0,0 l/m 19,6 km/h (3 Bft) S-SO22.5 150 0 min 5,40 klux 0 min 3,7 C -4,2 C
11.11.2011 11:15 4,3 C 97 % 1020 hPa 0,0 l/m 19,1 km/h (3 Bft) S-SO22.5 150 0 min 6,52 klux 0 min 3,9 C -3,7 C
11.11.2011 11:30 4,3 C 97 % 1020 hPa 0,0 l/m 18,0 km/h (3 Bft) S-SO22.5 160 0 min 6,38 klux 0 min 3,9 C -3,2 C
11.11.2011 11:45 4,4 C 97 % 1020 hPa 0,0 l/m 17,1 km/h (3 Bft) SO45 130 0 min 6,82 klux 0 min 4,0 C -2,7 C
11.11.2011 12:00 4,5 C 97 % 1020 hPa 0,0 l/m 14,3 km/h (3 Bft) SO22.5 145 0 min 6,92 klux 0 min 4,1 C -1,2 C
11.11.2011 12:15 4,5 C 97 % 1020 hPa 0,0 l/m 16,7 km/h (3 Bft) S-SO45 155 0 min 6,08 klux 0 min 4,1 C -2,4 C
11.11.2011 12:30 4,7 C 96 % 1020 hPa 0,0 l/m 13,6 km/h (3 Bft) SO45 135 0 min 6,49 klux 0 min 4,1 C -0,5 C
11.11.2011 12:45 4,8 C 96 % 1020 hPa 0,0 l/m 19,0 km/h (3 Bft) S-SO22.5 150 0 min 8,01 klux 0 min 4,2 C -3,0 C
11.11.2011 13:00 4,9 C 96 % 1020 hPa 0,0 l/m 17,5 km/h (3 Bft) S-SO22.5 150 0 min 7,96 klux 0 min 4,3 C -2,2 C
11.11.2011 13:15 4,9 C 95 % 1020 hPa 0,0 l/m 17,5 km/h (3 Bft) S-SO22.5 155 0 min 6,88 klux 0 min 4,2 C -2,2 C
11.11.2011 13:30 4,9 C 95 % 1020 hPa 0,0 l/m 18,6 km/h (3 Bft) SO22.5 140 0 min 7,63 klux 0 min 4,2 C -2,7 C
11.11.2011 13:45 5,2 C 94 % 1020 hPa 0,0 l/m 18,3 km/h (3 Bft) SO22.5 145 0 min 7,92 klux 0 min 4,3 C -2,2 C
11.11.2011 14:00 5,2 C 94 % 1020 hPa 0,0 l/m 22,8 km/h (4 Bft) SO22.5 145 0 min 9,4 klux 0 min 4,3 C -3,9 C
11.11.2011 14:15 5,4 C 94 % 1020 hPa 0,0 l/m 16,2 km/h (3 Bft) SO45 145 0 min 10,7 klux 0 min 4,5 C -1,0 C
11.11.2011 14:30 5,6 C 94 % 1019 hPa 0,0 l/m 15,7 km/h (3 Bft) O67.5 100 0 min 8,59 klux 0 min 4,7 C -0,5 C
11.11.2011 14:45 5,6 C 93 % 1019 hPa 0,0 l/m 15,5 km/h (3 Bft) SO22.5 135 0 min 8,42 klux 0 min 4,6 C -0,4 C
11.11.2011 15:00 5,6 C 92 % 1019 hPa 0,0 l/m 18,1 km/h (3 Bft) SO45 125 0 min 7,60 klux 0 min 4,4 C -1,6 C
11.11.2011 15:15 5,5 C 92 % 1019 hPa 0,0 l/m 17,8 km/h (3 Bft) O-SO45 115 0 min 5,81 klux 0 min 4,3 C -1,6 C
11.11.2011 15:30 5,4 C 93 % 1019 hPa 0,0 l/m 15,0 km/h (3 Bft) O-SO45 120 0 min 5,01 klux 0 min 4,4 C -0,4 C
11.11.2011 15:45 5,2 C 93 % 1019 hPa 0,0 l/m 17,3 km/h (3 Bft) S-SO22.5 150 0 min 3,49 klux 0 min 4,2 C -1,8 C
11.11.2011 16:00 5,2 C 93 % 1019 hPa 0,0 l/m 19,5 km/h (3 Bft) SO67.5 135 0 min 3,13 klux 0 min 4,2 C -2,7 C
11.11.2011 16:16 5,1 C 93 % 1019 hPa 0,0 l/m 18,3 km/h (3 Bft) SO45 135 0 min 2,17 klux 0 min 4,1 C -2,3 C
11.11.2011 16:30 4,9 C 93 % 1020 hPa 0,0 l/m 15,1 km/h (3 Bft) S22.5 170 0 min 1,84 klux 0 min 3,9 C -1,1 C
11.11.2011 16:45 4,8 C 92 % 1020 hPa 0,0 l/m 12,3 km/h (3 Bft) S22.5 170 0 min 1,03 klux 0 min 3,6 C 0,3 C
11.11.2011 17:00 4,8 C 92 % 1020 hPa 0,0 l/m 8,9 km/h (2 Bft) S-SO22.5 160 0 min 427 lux 0 min 3,6 C 2,7 C
11.11.2011 17:15 4,7 C 93 % 1020 hPa 0,0 l/m 5,7 km/h (1 Bft) S-SO 150 0 min 145 lux 0 min 3,7 C 4,7 C
11.11.2011 17:30 4,4 C 92 % 1020 hPa 0,0 l/m 12,9 km/h (3 Bft) S-SO22.5 165 0 min 27 lux 0 min 3,2 C -0,5 C
11.11.2011 17:46 3,8 C 91 % 1020 hPa 0,0 l/m 6,9 km/h (2 Bft) S22.5 175 0 min 1 lux 0 min 2,5 C 3,3 C
11.11.2011 18:00 3,2 C 92 % 1020 hPa 0,0 l/m 6,4 km/h (2 Bft) S-SO22.5 150 0 min 0 lux 0 min 2,0 C 3,2 C
11.11.2011 18:15 3,1 C 93 % 1020 hPa 0,0 l/m 0,6 km/h (0 Bft) S-SO 155 0 min 0 lux 0 min 2,1 C 3,1 C
11.11.2011 18:30 3,1 C 93 % 1020 hPa 0,0 l/m 3,4 km/h (1 Bft) O-SO 105 0 min 0 lux 0 min 2,1 C 3,1 C
11.11.2011 18:45 3,2 C 93 % 1020 hPa 0,0 l/m 10,5 km/h (2 Bft) O-SO45 105 0 min 0 lux 0 min 2,2 C -0,3 C
11.11.2011 19:00 3,2 C 94 % 1020 hPa 0,0 l/m 11,2 km/h (2 Bft) O45 95 0 min 0 lux 0 min 2,3 C -0,8 C
11.11.2011 19:16 3,1 C 93 % 1020 hPa 0,0 l/m 6,8 km/h (2 Bft) SO45 135 0 min 0 lux 0 min 2,1 C 2,7 C
11.11.2011 19:30 3,1 C 93 % 1021 hPa 0,0 l/m 9,4 km/h (2 Bft) SO22.5 130 0 min 0 lux 0 min 2,1 C 0,4 C
11.11.2011 19:45 2,8 C 93 % 1020 hPa 0,0 l/m 7,3 km/h (2 Bft) O22.5 95 0 min 0 lux 0 min 1,8 C 1,9 C
11.11.2011 20:00 2,7 C 94 % 1020 hPa 0,0 l/m 9,4 km/h (2 Bft) O-SO22.5 115 0 min 0 lux 0 min 1,8 C 0,0 C
11.11.2011 20:15 2,3 C 94 % 1020 hPa 0,0 l/m 8,3 km/h (2 Bft) O22.5 100 0 min 0 lux 0 min 1,4 C 0,5 C
11.11.2011 20:30 1,9 C 93 % 1021 hPa 0,0 l/m 6,3 km/h (2 Bft) O22.5 95 0 min 0 lux 0 min 0,9 C 1,9 C
11.11.2011 20:46 1,5 C 93 % 1021 hPa 0,0 l/m 0,0 km/h (0 Bft) O 100 0 min 0 lux 0 min 0,5 C 1,5 C
11.11.2011 21:00 1,3 C 94 % 1021 hPa 0,0 l/m 1,3 km/h (1 Bft) O 95 0 min 0 lux 0 min 0,4 C 1,3 C
11.11.2011 21:15 1,1 C 94 % 1021 hPa 0,0 l/m 4,7 km/h (1 Bft) O 100 0 min 0 lux 0 min 0,2 C 1,1 C
11.11.2011 21:30 0,9 C 95 % 1021 hPa 0,0 l/m 6,7 km/h (2 Bft) SO22.5 125 0 min 0 lux 0 min 0,2 C 0,6 C
11.11.2011 21:45 0,7 C 95 % 1021 hPa 0,0 l/m 5,2 km/h (1 Bft) O67.5 95 0 min 0 lux 0 min -0,0 C 0,7 C
11.11.2011 22:00 0,4 C 95 % 1021 hPa 0,0 l/m 5,2 km/h (1 Bft) SO22.5 125 0 min 0 lux 0 min -0,3 C 0,4 C
11.11.2011 22:16 0,3 C 95 % 1022 hPa 0,0 l/m 5,9 km/h (2 Bft) O22.5 85 0 min 0 lux 0 min -0,4 C 0,3 C
11.11.2011 22:30 0,2 C 95 % 1022 hPa 0,0 l/m 6,0 km/h (2 Bft) O-SO22.5 115 0 min 0 lux 0 min -0,5 C 0,2 C
11.11.2011 22:45 -0,2 C 95 % 1022 hPa 0,0 l/m 4,7 km/h (1 Bft) O-SO 110 0 min 0 lux 0 min -0,9 C -0,2 C
11.11.2011 23:00 -0,5 C 95 % 1022 hPa 0,0 l/m 3,0 km/h (1 Bft) O-SO 110 0 min 0 lux 0 min -1,2 C -0,5 C
11.11.2011 23:15 -0,6 C 95 % 1022 hPa 0,0 l/m 0,9 km/h (0 Bft) O-SO 110 0 min 0 lux 0 min -1,3 C -0,6 C
11.11.2011 23:30 -0,8 C 96 % 1022 hPa 0,0 l/m 3,4 km/h (1 Bft) O-SO22.5 120 0 min 0 lux 0 min -1,4 C -0,8 C
11.11.2011 23:46 -0,8 C 96 % 1022 hPa 0,0 l/m 4,2 km/h (1 Bft) O-SO 115 0 min 0 lux 0 min -1,4 C -0,8 C
_ Min-Zeit 23:30 17:46 00:09 - 20:46 - - - - - 23:30 09:45
Minimum _ -0,8 C 91 % 1018 hPa - 0,0 km/h (0 Bft) - - - - - -1,4 C -5,6 C
_ Max-Zeit 14:30 05:24 22:16 00:09 14:00 - - 00:09 14:15 00:09 14:30 17:15
Maximum _ 5,6 C 97 % 1022 hPa 0,0 l/m 22,8 km/h
SO (4 Bft)
- - 0 min 10,7 klux 0 min 4,7 C 4,7 C
Durchschnitt _ 3,3 C 95 % 1020 hPa #0,0 l/m 12,4 km/h (3 Bft) SO - #0 min. 1,96 klux #0 min. 2,7 C -1,1 C